Weather at Bill & Hillary Clinton National Airport/Adams Field

Public forecast

Using degrees Fahrenheit for public forecast. Weather courtesy of forecast.io.

Current aviation weather report (METAR) for Bill & Hillary Clinton National Airport/Adams Field

Report is more than 6 hours old.

2022/11/14 14:53 (retrieved 2 years ago)

KLIT 141453Z AUTO 10005KT 10SM CLR 03/M02 A3029 RMK AO2 SLP260 T00281017 50011

Aviation forecast (TAF) for Bill & Hillary Clinton National Airport/Adams Field

Forecast is more than 12 hours old.

2023/02/22 20:18 Ammendment (retrieved 1 year ago)

TAF AMD KLIT 222016Z 2220/2318 28009G18KT P6SM -SHRA BKN035 OVC070 FM222200 21010KT P6SM SCT200 FM230200 22008KT P6SM SCT250 FM231200 25006KT P6SM SCT250